sensor_id;sensor_type;location;lat;lon;timestamp;pressure;altitude;pressure_sealevel;temperature;humidity
64610;BME280;51019;46.090;6.350;2023-07-13T00:00:48;96650.22;;;22.00;90.25
64610;BME280;51019;46.090;6.350;2023-07-13T00:03:17;96642.41;;;22.05;88.46
64610;BME280;51019;46.090;6.350;2023-07-13T00:05:44;96651.84;;;22.01;88.74
64610;BME280;51019;46.090;6.350;2023-07-13T00:08:12;96645.75;;;21.74;90.80
64610;BME280;51019;46.090;6.350;2023-07-13T00:10:39;96639.19;;;21.77;90.70
64610;BME280;51019;46.090;6.350;2023-07-13T00:13:07;96643.53;;;21.64;91.76
64610;BME280;51019;46.090;6.350;2023-07-13T00:15:38;96637.56;;;21.76;92.53
64610;BME280;51019;46.090;6.350;2023-07-13T00:18:05;96638.09;;;21.91;91.94
64610;BME280;51019;46.090;6.350;2023-07-13T00:20:32;96636.25;;;21.91;92.05
64610;BME280;51019;46.090;6.350;2023-07-13T00:22:59;96625.66;;;21.78;90.67
64610;BME280;51019;46.090;6.350;2023-07-13T00:25:26;96627.66;;;21.89;91.51
64610;BME280;51019;46.090;6.350;2023-07-13T00:27:54;96627.28;;;21.72;93.72
64610;BME280;51019;46.090;6.350;2023-07-13T00:30:21;96622.59;;;21.68;96.42
64610;BME280;51019;46.090;6.350;2023-07-13T00:32:52;96630.00;;;21.66;98.36
64610;BME280;51019;46.090;6.350;2023-07-13T00:35:19;96626.72;;;21.57;99.17
64610;BME280;51019;46.090;6.350;2023-07-13T00:37:46;96627.50;;;21.71;95.18
64610;BME280;51019;46.090;6.350;2023-07-13T00:40:14;96623.03;;;21.58;94.02
64610;BME280;51019;46.090;6.350;2023-07-13T00:42:41;96631.22;;;21.63;92.85
64610;BME280;51019;46.090;6.350;2023-07-13T00:47:52;96617.72;;;21.52;95.06
64610;BME280;51019;46.090;6.350;2023-07-13T00:50:19;96617.91;;;21.63;97.25
64610;BME280;51019;46.090;6.350;2023-07-13T00:52:48;96617.69;;;21.58;100.00
64610;BME280;51019;46.090;6.350;2023-07-13T00:55:16;96621.19;;;21.46;100.00
64610;BME280;51019;46.090;6.350;2023-07-13T00:57:43;96626.97;;;21.43;100.00
64610;BME280;51019;46.090;6.350;2023-07-13T01:00:14;96626.78;;;21.31;100.00
64610;BME280;51019;46.090;6.350;2023-07-13T01:02:42;96631.50;;;21.29;100.00
64610;BME280;51019;46.090;6.350;2023-07-13T01:05:14;96627.78;;;21.23;100.00
64610;BME280;51019;46.090;6.350;2023-07-13T01:07:42;96625.13;;;20.84;100.00
64610;BME280;51019;46.090;6.350;2023-07-13T01:10:10;96625.09;;;20.77;100.00
64610;BME280;51019;46.090;6.350;2023-07-13T01:12:38;96632.09;;;20.91;100.00
64610;BME280;51019;46.090;6.350;2023-07-13T01:15:32;96633.31;;;20.82;100.00
64610;BME280;51019;46.090;6.350;2023-07-13T01:17:53;96637.81;;;20.82;100.00
64610;BME280;51019;46.090;6.350;2023-07-13T01:20:22;96631.47;;;20.70;100.00
64610;BME280;51019;46.090;6.350;2023-07-13T01:22:51;96631.88;;;20.60;100.00
64610;BME280;51019;46.090;6.350;2023-07-13T01:25:18;96624.06;;;20.52;100.00
64610;BME280;51019;46.090;6.350;2023-07-13T01:27:46;96629.81;;;20.69;100.00
64610;BME280;51019;46.090;6.350;2023-07-13T01:30:13;96625.72;;;20.66;100.00
64610;BME280;51019;46.090;6.350;2023-07-13T01:32:40;96631.03;;;20.59;100.00
64610;BME280;51019;46.090;6.350;2023-07-13T01:35:07;96629.63;;;20.70;100.00
64610;BME280;51019;46.090;6.350;2023-07-13T01:37:34;96647.84;;;20.60;100.00
64610;BME280;51019;46.090;6.350;2023-07-13T01:40:04;96641.47;;;20.54;100.00
64610;BME280;51019;46.090;6.350;2023-07-13T01:42:33;96646.38;;;20.57;100.00
64610;BME280;51019;46.090;6.350;2023-07-13T01:45:00;96653.81;;;20.75;100.00
64610;BME280;51019;46.090;6.350;2023-07-13T01:47:27;96654.00;;;20.74;100.00
64610;BME280;51019;46.090;6.350;2023-07-13T01:49:56;96652.97;;;20.61;100.00
64610;BME280;51019;46.090;6.350;2023-07-13T01:52:22;96647.00;;;20.53;100.00
64610;BME280;51019;46.090;6.350;2023-07-13T01:54:50;96650.31;;;20.68;100.00
64610;BME280;51019;46.090;6.350;2023-07-13T01:57:18;96662.06;;;20.33;100.00
64610;BME280;51019;46.090;6.350;2023-07-13T01:59:46;96652.13;;;20.48;100.00
64610;BME280;51019;46.090;6.350;2023-07-13T02:02:13;96649.47;;;20.61;100.00
64610;BME280;51019;46.090;6.350;2023-07-13T02:04:40;96642.91;;;20.57;100.00
64610;BME280;51019;46.090;6.350;2023-07-13T02:07:07;96645.34;;;20.39;100.00
64610;BME280;51019;46.090;6.350;2023-07-13T02:09:37;96644.06;;;20.28;100.00
64610;BME280;51019;46.090;6.350;2023-07-13T02:12:04;96646.91;;;20.26;100.00
64610;BME280;51019;46.090;6.350;2023-07-13T02:14:33;96632.16;;;20.24;100.00
64610;BME280;51019;46.090;6.350;2023-07-13T02:17:00;96642.78;;;20.17;100.00
64610;BME280;51019;46.090;6.350;2023-07-13T02:19:28;96643.63;;;20.24;100.00
64610;BME280;51019;46.090;6.350;2023-07-13T02:21:55;96640.34;;;20.22;100.00
64610;BME280;51019;46.090;6.350;2023-07-13T02:24:24;96634.00;;;20.23;100.00
64610;BME280;51019;46.090;6.350;2023-07-13T02:26:52;96636.88;;;20.28;100.00
64610;BME280;51019;46.090;6.350;2023-07-13T02:29:19;96638.81;;;20.41;100.00
64610;BME280;51019;46.090;6.350;2023-07-13T02:31:49;96631.63;;;20.55;100.00
64610;BME280;51019;46.090;6.350;2023-07-13T02:34:16;96639.63;;;20.42;100.00
64610;BME280;51019;46.090;6.350;2023-07-13T02:36:43;96626.13;;;20.50;100.00
64610;BME280;51019;46.090;6.350;2023-07-13T02:39:11;96631.63;;;20.42;100.00
64610;BME280;51019;46.090;6.350;2023-07-13T02:41:38;96628.16;;;20.48;100.00
64610;BME280;51019;46.090;6.350;2023-07-13T02:44:05;96624.88;;;20.46;100.00
64610;BME280;51019;46.090;6.350;2023-07-13T02:46:34;96633.88;;;20.45;100.00
64610;BME280;51019;46.090;6.350;2023-07-13T02:49:07;96629.91;;;20.27;100.00
64610;BME280;51019;46.090;6.350;2023-07-13T02:51:34;96621.66;;;20.09;100.00
64610;BME280;51019;46.090;6.350;2023-07-13T02:54:03;96628.63;;;20.10;100.00
64610;BME280;51019;46.090;6.350;2023-07-13T02:56:31;96633.13;;;20.10;100.00
64610;BME280;51019;46.090;6.350;2023-07-13T02:58:58;96629.88;;;20.14;100.00
64610;BME280;51019;46.090;6.350;2023-07-13T03:01:25;96626.00;;;20.17;100.00
64610;BME280;51019;46.090;6.350;2023-07-13T03:03:52;96631.31;;;20.17;100.00
64610;BME280;51019;46.090;6.350;2023-07-13T03:06:21;96623.88;;;19.99;100.00
64610;BME280;51019;46.090;6.350;2023-07-13T03:08:49;96626.34;;;19.94;100.00
64610;BME280;51019;46.090;6.350;2023-07-13T03:11:17;96627.56;;;19.98;100.00
64610;BME280;51019;46.090;6.350;2023-07-13T03:13:44;96618.97;;;19.96;100.00
64610;BME280;51019;46.090;6.350;2023-07-13T03:16:12;96630.63;;;19.95;100.00
64610;BME280;51019;46.090;6.350;2023-07-13T03:18:41;96628.16;;;19.93;100.00
64610;BME280;51019;46.090;6.350;2023-07-13T03:21:07;96622.47;;;20.03;100.00
64610;BME280;51019;46.090;6.350;2023-07-13T03:23:36;96632.09;;;20.11;100.00
64610;BME280;51019;46.090;6.350;2023-07-13T03:26:04;96631.72;;;20.14;100.00
64610;BME280;51019;46.090;6.350;2023-07-13T03:28:32;96628.00;;;20.02;100.00
64610;BME280;51019;46.090;6.350;2023-07-13T03:30:59;96634.53;;;19.99;100.00
64610;BME280;51019;46.090;6.350;2023-07-13T03:33:26;96634.97;;;20.09;100.00
64610;BME280;51019;46.090;6.350;2023-07-13T03:35:53;96630.94;;;20.33;100.00
64610;BME280;51019;46.090;6.350;2023-07-13T03:38:20;96636.69;;;20.30;100.00
64610;BME280;51019;46.090;6.350;2023-07-13T03:40:49;96631.84;;;20.40;100.00
64610;BME280;51019;46.090;6.350;2023-07-13T03:43:16;96646.72;;;20.35;100.00
64610;BME280;51019;46.090;6.350;2023-07-13T03:45:43;96638.34;;;20.31;100.00
64610;BME280;51019;46.090;6.350;2023-07-13T03:48:10;96642.69;;;20.39;100.00
64610;BME280;51019;46.090;6.350;2023-07-13T03:50:37;96641.66;;;20.46;100.00
64610;BME280;51019;46.090;6.350;2023-07-13T03:53:05;96654.47;;;20.23;100.00
64610;BME280;51019;46.090;6.350;2023-07-13T03:55:32;96656.94;;;20.24;100.00
64610;BME280;51019;46.090;6.350;2023-07-13T03:58:22;96644.13;;;20.00;100.00
64610;BME280;51019;46.090;6.350;2023-07-13T04:00:48;96637.78;;;19.94;100.00
64610;BME280;51019;46.090;6.350;2023-07-13T04:03:16;96641.66;;;19.85;100.00
64610;BME280;51019;46.090;6.350;2023-07-13T04:05:43;96651.34;;;20.06;100.00
64610;BME280;51019;46.090;6.350;2023-07-13T04:08:10;96654.75;;;19.93;100.00
64610;BME280;51019;46.090;6.350;2023-07-13T04:10:37;96671.59;;;19.66;100.00
64610;BME280;51019;46.090;6.350;2023-07-13T04:13:05;96669.94;;;19.65;100.00
64610;BME280;51019;46.090;6.350;2023-07-13T04:15:32;96677.66;;;19.53;100.00
64610;BME280;51019;46.090;6.350;2023-07-13T04:17:59;96678.63;;;19.18;100.00
64610;BME280;51019;46.090;6.350;2023-07-13T04:20:28;96686.63;;;19.25;100.00
64610;BME280;51019;46.090;6.350;2023-07-13T04:22:55;96688.78;;;19.42;100.00
64610;BME280;51019;46.090;6.350;2023-07-13T04:25:25;96693.47;;;19.62;100.00
64610;BME280;51019;46.090;6.350;2023-07-13T04:27:52;96700.06;;;19.72;100.00
64610;BME280;51019;46.090;6.350;2023-07-13T04:30:21;96698.09;;;19.87;100.00
64610;BME280;51019;46.090;6.350;2023-07-13T04:32:49;96707.13;;;19.93;100.00
64610;BME280;51019;46.090;6.350;2023-07-13T04:35:23;96705.88;;;19.89;100.00
64610;BME280;51019;46.090;6.350;2023-07-13T04:37:49;96708.03;;;19.72;100.00
64610;BME280;51019;46.090;6.350;2023-07-13T04:40:17;96722.66;;;19.55;100.00
64610;BME280;51019;46.090;6.350;2023-07-13T04:42:44;96724.00;;;19.72;100.00
64610;BME280;51019;46.090;6.350;2023-07-13T04:45:11;96731.69;;;19.61;100.00
64610;BME280;51019;46.090;6.350;2023-07-13T04:47:40;96724.56;;;19.40;100.00
64610;BME280;51019;46.090;6.350;2023-07-13T04:50:07;96724.88;;;19.30;100.00
64610;BME280;51019;46.090;6.350;2023-07-13T04:52:35;96732.38;;;19.48;100.00
64610;BME280;51019;46.090;6.350;2023-07-13T04:55:03;96739.94;;;19.23;100.00
64610;BME280;51019;46.090;6.350;2023-07-13T04:57:30;96736.16;;;19.11;100.00
64610;BME280;51019;46.090;6.350;2023-07-13T04:59:56;96746.38;;;19.07;100.00
64610;BME280;51019;46.090;6.350;2023-07-13T05:02:26;96735.34;;;19.10;100.00
64610;BME280;51019;46.090;6.350;2023-07-13T05:04:55;96745.66;;;18.99;100.00
64610;BME280;51019;46.090;6.350;2023-07-13T05:07:22;96738.88;;;18.96;100.00
64610;BME280;51019;46.090;6.350;2023-07-13T05:09:49;96743.25;;;18.82;100.00
64610;BME280;51019;46.090;6.350;2023-07-13T05:12:16;96749.38;;;18.83;100.00
64610;BME280;51019;46.090;6.350;2023-07-13T05:14:43;96753.38;;;18.94;100.00
64610;BME280;51019;46.090;6.350;2023-07-13T05:17:10;96749.06;;;18.93;100.00
64610;BME280;51019;46.090;6.350;2023-07-13T05:19:37;96749.81;;;18.86;100.00
64610;BME280;51019;46.090;6.350;2023-07-13T05:22:06;96754.00;;;18.96;100.00
64610;BME280;51019;46.090;6.350;2023-07-13T05:24:33;96753.69;;;18.84;100.00
64610;BME280;51019;46.090;6.350;2023-07-13T05:27:00;96755.00;;;18.73;100.00
64610;BME280;51019;46.090;6.350;2023-07-13T05:29:27;96768.16;;;18.81;100.00
64610;BME280;51019;46.090;6.350;2023-07-13T05:31:55;96771.56;;;18.97;100.00
64610;BME280;51019;46.090;6.350;2023-07-13T05:34:22;96757.69;;;18.95;100.00
64610;BME280;51019;46.090;6.350;2023-07-13T05:36:50;96766.19;;;18.90;100.00
64610;BME280;51019;46.090;6.350;2023-07-13T05:39:19;96767.00;;;18.69;100.00
64610;BME280;51019;46.090;6.350;2023-07-13T05:41:46;96772.81;;;18.79;100.00
64610;BME280;51019;46.090;6.350;2023-07-13T05:44:13;96784.06;;;18.60;100.00
64610;BME280;51019;46.090;6.350;2023-07-13T05:46:40;96780.84;;;18.35;100.00
64610;BME280;51019;46.090;6.350;2023-07-13T05:49:07;96783.75;;;18.55;100.00
64610;BME280;51019;46.090;6.350;2023-07-13T05:51:35;96790.91;;;18.69;100.00
64610;BME280;51019;46.090;6.350;2023-07-13T05:54:02;96791.47;;;18.50;100.00
64610;BME280;51019;46.090;6.350;2023-07-13T05:56:30;96795.84;;;18.72;100.00
64610;BME280;51019;46.090;6.350;2023-07-13T05:58:57;96796.31;;;18.61;100.00
64610;BME280;51019;46.090;6.350;2023-07-13T06:01:24;96789.41;;;18.81;100.00
64610;BME280;51019;46.090;6.350;2023-07-13T06:03:52;96783.75;;;19.06;100.00
64610;BME280;51019;46.090;6.350;2023-07-13T06:06:19;96777.91;;;19.17;100.00
64610;BME280;51019;46.090;6.350;2023-07-13T06:08:46;96783.66;;;19.20;100.00
64610;BME280;51019;46.090;6.350;2023-07-13T06:11:14;96787.72;;;19.38;100.00
64610;BME280;51019;46.090;6.350;2023-07-13T06:13:43;96781.38;;;19.39;100.00
64610;BME280;51019;46.090;6.350;2023-07-13T06:16:12;96774.59;;;19.57;100.00
64610;BME280;51019;46.090;6.350;2023-07-13T06:18:39;96768.91;;;19.61;100.00
64610;BME280;51019;46.090;6.350;2023-07-13T06:21:07;96774.28;;;19.67;100.00
64610;BME280;51019;46.090;6.350;2023-07-13T06:23:34;96772.19;;;19.90;100.00
64610;BME280;51019;46.090;6.350;2023-07-13T06:26:01;96772.84;;;19.99;100.00
64610;BME280;51019;46.090;6.350;2023-07-13T06:28:29;96778.63;;;20.09;100.00
64610;BME280;51019;46.090;6.350;2023-07-13T06:30:59;96776.13;;;20.01;100.00
64610;BME280;51019;46.090;6.350;2023-07-13T06:33:26;96782.09;;;20.03;100.00
64610;BME280;51019;46.090;6.350;2023-07-13T06:35:54;96788.22;;;20.04;100.00
64610;BME280;51019;46.090;6.350;2023-07-13T06:38:21;96788.81;;;19.99;100.00
64610;BME280;51019;46.090;6.350;2023-07-13T06:40:49;96785.47;;;20.18;100.00
64610;BME280;51019;46.090;6.350;2023-07-13T06:43:16;96790.84;;;20.31;100.00
64610;BME280;51019;46.090;6.350;2023-07-13T06:45:44;96796.63;;;20.35;100.00
64610;BME280;51019;46.090;6.350;2023-07-13T06:48:16;96798.72;;;20.12;100.00
64610;BME280;51019;46.090;6.350;2023-07-13T06:50:44;96803.03;;;20.13;100.00
64610;BME280;51019;46.090;6.350;2023-07-13T06:53:11;96811.88;;;20.20;100.00
64610;BME280;51019;46.090;6.350;2023-07-13T06:55:39;96809.16;;;20.13;100.00
64610;BME280;51019;46.090;6.350;2023-07-13T06:58:06;96809.31;;;20.05;100.00
64610;BME280;51019;46.090;6.350;2023-07-13T07:00:33;96813.81;;;20.05;100.00
64610;BME280;51019;46.090;6.350;2023-07-13T07:03:00;96815.41;;;19.99;100.00
64610;BME280;51019;46.090;6.350;2023-07-13T07:05:28;96815.09;;;20.09;100.00
64610;BME280;51019;46.090;6.350;2023-07-13T07:07:55;96823.09;;;20.15;100.00
64610;BME280;51019;46.090;6.350;2023-07-13T07:10:23;96829.53;;;20.27;100.00
64610;BME280;51019;46.090;6.350;2023-07-13T07:12:51;96822.91;;;20.17;100.00
64610;BME280;51019;46.090;6.350;2023-07-13T07:15:18;96824.03;;;20.01;100.00
64610;BME280;51019;46.090;6.350;2023-07-13T07:17:46;96817.16;;;20.13;100.00
64610;BME280;51019;46.090;6.350;2023-07-13T07:20:13;96826.47;;;20.30;100.00
64610;BME280;51019;46.090;6.350;2023-07-13T07:22:42;96823.03;;;20.37;100.00
64610;BME280;51019;46.090;6.350;2023-07-13T07:25:09;96824.81;;;20.29;100.00
64610;BME280;51019;46.090;6.350;2023-07-13T07:27:36;96819.81;;;20.13;100.00
64610;BME280;51019;46.090;6.350;2023-07-13T07:30:05;96826.34;;;20.39;100.00
64610;BME280;51019;46.090;6.350;2023-07-13T07:32:32;96831.16;;;20.28;100.00
64610;BME280;51019;46.090;6.350;2023-07-13T07:34:59;96830.03;;;20.44;100.00
64610;BME280;51019;46.090;6.350;2023-07-13T07:37:26;96827.25;;;20.59;100.00
64610;BME280;51019;46.090;6.350;2023-07-13T07:39:56;96824.13;;;20.42;100.00
64610;BME280;51019;46.090;6.350;2023-07-13T07:42:24;96831.19;;;20.63;100.00
64610;BME280;51019;46.090;6.350;2023-07-13T07:44:51;96832.41;;;20.33;100.00
64610;BME280;51019;46.090;6.350;2023-07-13T07:47:19;96828.09;;;20.31;100.00
64610;BME280;51019;46.090;6.350;2023-07-13T07:49:46;96828.63;;;20.96;100.00
64610;BME280;51019;46.090;6.350;2023-07-13T07:52:13;96829.28;;;21.11;100.00
64610;BME280;51019;46.090;6.350;2023-07-13T07:54:40;96830.97;;;21.19;100.00
64610;BME280;51019;46.090;6.350;2023-07-13T07:57:10;96827.72;;;21.30;100.00
64610;BME280;51019;46.090;6.350;2023-07-13T07:59:37;96834.50;;;21.46;100.00
64610;BME280;51019;46.090;6.350;2023-07-13T08:02:05;96829.81;;;21.94;100.00
64610;BME280;51019;46.090;6.350;2023-07-13T08:04:33;96831.72;;;22.71;100.00
64610;BME280;51019;46.090;6.350;2023-07-13T08:07:01;96830.47;;;22.73;100.00
64610;BME280;51019;46.090;6.350;2023-07-13T08:09:28;96836.44;;;22.69;100.00
64610;BME280;51019;46.090;6.350;2023-07-13T08:11:56;96838.16;;;22.50;100.00
64610;BME280;51019;46.090;6.350;2023-07-13T08:14:25;96839.78;;;22.58;100.00
64610;BME280;51019;46.090;6.350;2023-07-13T08:16:52;96836.94;;;22.53;100.00
64610;BME280;51019;46.090;6.350;2023-07-13T08:19:19;96829.81;;;21.81;100.00
64610;BME280;51019;46.090;6.350;2023-07-13T08:21:46;96846.38;;;22.49;100.00
64610;BME280;51019;46.090;6.350;2023-07-13T08:24:14;96834.19;;;22.72;100.00
64610;BME280;51019;46.090;6.350;2023-07-13T08:26:43;96835.47;;;22.57;100.00
64610;BME280;51019;46.090;6.350;2023-07-13T08:29:10;96836.50;;;22.56;100.00
64610;BME280;51019;46.090;6.350;2023-07-13T08:31:39;96832.94;;;22.81;100.00
64610;BME280;51019;46.090;6.350;2023-07-13T08:34:07;96833.28;;;23.36;98.52
64610;BME280;51019;46.090;6.350;2023-07-13T08:36:40;96833.19;;;23.18;100.00
64610;BME280;51019;46.090;6.350;2023-07-13T08:39:07;96845.03;;;23.35;98.50
64610;BME280;51019;46.090;6.350;2023-07-13T08:41:34;96833.69;;;23.96;92.91
64610;BME280;51019;46.090;6.350;2023-07-13T08:44:01;96838.31;;;23.82;86.76
64610;BME280;51019;46.090;6.350;2023-07-13T08:46:32;96838.53;;;23.56;89.99
64610;BME280;51019;46.090;6.350;2023-07-13T08:49:05;96838.44;;;23.69;89.50
64610;BME280;51019;46.090;6.350;2023-07-13T08:51:38;96837.53;;;23.50;84.60
64610;BME280;51019;46.090;6.350;2023-07-13T08:54:14;96837.88;;;24.35;84.06
64610;BME280;51019;46.090;6.350;2023-07-13T08:56:44;96829.13;;;24.83;77.34
64610;BME280;51019;46.090;6.350;2023-07-13T08:59:14;96828.13;;;24.95;75.97
64610;BME280;51019;46.090;6.350;2023-07-13T09:04:29;96830.00;;;24.15;83.26
64610;BME280;51019;46.090;6.350;2023-07-13T09:07:01;96834.66;;;23.77;72.54
64610;BME280;51019;46.090;6.350;2023-07-13T09:09:34;96834.44;;;24.28;74.59
64610;BME280;51019;46.090;6.350;2023-07-13T09:12:08;96827.69;;;24.26;73.65
64610;BME280;51019;46.090;6.350;2023-07-13T09:14:42;96826.94;;;24.37;67.41
64610;BME280;51019;46.090;6.350;2023-07-13T09:17:13;96832.38;;;25.03;62.26
64610;BME280;51019;46.090;6.350;2023-07-13T09:19:46;96833.34;;;25.39;64.79
64610;BME280;51019;46.090;6.350;2023-07-13T09:22:16;96800.66;;;24.82;68.59
64610;BME280;51019;46.090;6.350;2023-07-13T09:24:48;96827.44;;;25.48;66.76
64610;BME280;51019;46.090;6.350;2023-07-13T09:27:22;96830.47;;;26.05;61.86
64610;BME280;51019;46.090;6.350;2023-07-13T09:29:51;96831.88;;;26.43;56.69
64610;BME280;51019;46.090;6.350;2023-07-13T09:32:23;96821.81;;;26.61;59.47
64610;BME280;51019;46.090;6.350;2023-07-13T09:34:53;96825.56;;;26.25;58.80
64610;BME280;51019;46.090;6.350;2023-07-13T09:37:23;96828.84;;;26.62;58.17
64610;BME280;51019;46.090;6.350;2023-07-13T09:39:54;96828.00;;;25.92;58.52
64610;BME280;51019;46.090;6.350;2023-07-13T09:42:23;96828.72;;;27.09;59.11
64610;BME280;51019;46.090;6.350;2023-07-13T09:44:54;96832.56;;;26.61;60.35
64610;BME280;51019;46.090;6.350;2023-07-13T09:47:22;96835.22;;;26.85;59.85
64610;BME280;51019;46.090;6.350;2023-07-13T09:49:57;96840.19;;;26.41;59.55
64610;BME280;51019;46.090;6.350;2023-07-13T09:52:27;96842.75;;;26.36;60.11
64610;BME280;51019;46.090;6.350;2023-07-13T09:54:57;96844.75;;;26.52;58.25
64610;BME280;51019;46.090;6.350;2023-07-13T09:57:25;96837.09;;;26.96;56.45
64610;BME280;51019;46.090;6.350;2023-07-13T09:59:53;96853.78;;;25.81;60.62
64610;BME280;51019;46.090;6.350;2023-07-13T10:02:26;96857.22;;;27.22;52.11
64610;BME280;51019;46.090;6.350;2023-07-13T10:04:59;96856.28;;;27.56;52.36
64610;BME280;51019;46.090;6.350;2023-07-13T10:07:28;96853.00;;;26.16;55.11
64610;BME280;51019;46.090;6.350;2023-07-13T10:09:55;96865.09;;;27.40;56.66
64610;BME280;51019;46.090;6.350;2023-07-13T10:12:23;96854.69;;;25.75;60.76
64610;BME280;51019;46.090;6.350;2023-07-13T10:14:52;96862.06;;;25.20;61.27
64610;BME280;51019;46.090;6.350;2023-07-13T10:17:25;96867.13;;;25.28;60.39
64610;BME280;51019;46.090;6.350;2023-07-13T10:19:55;96865.25;;;26.12;59.58
64610;BME280;51019;46.090;6.350;2023-07-13T10:22:31;96867.34;;;26.91;58.22
64610;BME280;51019;46.090;6.350;2023-07-13T10:25:47;96865.69;;;25.55;59.84
64610;BME280;51019;46.090;6.350;2023-07-13T10:28:30;96873.66;;;25.32;63.16
64610;BME280;51019;46.090;6.350;2023-07-13T10:31:00;96871.31;;;26.19;60.49
64610;BME280;51019;46.090;6.350;2023-07-13T10:33:30;96877.84;;;27.16;54.34
64610;BME280;51019;46.090;6.350;2023-07-13T10:36:31;96876.47;;;27.42;52.52
64610;BME280;51019;46.090;6.350;2023-07-13T10:41:54;96878.72;;;26.58;54.73
64610;BME280;51019;46.090;6.350;2023-07-13T10:44:23;96874.59;;;27.42;53.27
64610;BME280;51019;46.090;6.350;2023-07-13T10:46:57;96873.06;;;27.92;50.80
64610;BME280;51019;46.090;6.350;2023-07-13T10:49:26;96879.00;;;28.10;48.37
64610;BME280;51019;46.090;6.350;2023-07-13T10:51:54;96879.56;;;27.51;42.87
64610;BME280;51019;46.090;6.350;2023-07-13T10:54:27;96874.31;;;26.29;43.84
64610;BME280;51019;46.090;6.350;2023-07-13T10:57:08;96873.00;;;26.31;42.02
64610;BME280;51019;46.090;6.350;2023-07-13T10:59:43;96878.09;;;27.03;38.93
64610;BME280;51019;46.090;6.350;2023-07-13T11:02:15;96875.00;;;27.79;44.88
64610;BME280;51019;46.090;6.350;2023-07-13T11:04:47;96870.72;;;27.38;43.16
64610;BME280;51019;46.090;6.350;2023-07-13T11:07:18;96877.63;;;27.06;46.50
64610;BME280;51019;46.090;6.350;2023-07-13T11:09:49;96878.13;;;26.80;44.48
64610;BME280;51019;46.090;6.350;2023-07-13T11:12:28;96876.03;;;27.62;41.31
64610;BME280;51019;46.090;6.350;2023-07-13T11:15:02;96881.47;;;28.62;42.87
64610;BME280;51019;46.090;6.350;2023-07-13T11:17:36;96877.63;;;28.97;40.73
64610;BME280;51019;46.090;6.350;2023-07-13T11:20:20;96872.94;;;28.87;41.61
64610;BME280;51019;46.090;6.350;2023-07-13T11:22:50;96865.22;;;28.96;41.96
64610;BME280;51019;46.090;6.350;2023-07-13T11:25:21;96862.50;;;28.57;42.68
64610;BME280;51019;46.090;6.350;2023-07-13T11:28:03;96865.75;;;28.76;41.30
64610;BME280;51019;46.090;6.350;2023-07-13T11:30:35;96866.63;;;29.74;40.68
64610;BME280;51019;46.090;6.350;2023-07-13T11:33:15;96867.19;;;29.27;41.71
64610;BME280;51019;46.090;6.350;2023-07-13T11:35:57;96863.38;;;29.45;41.31
64610;BME280;51019;46.090;6.350;2023-07-13T11:38:32;96858.47;;;29.69;38.52
64610;BME280;51019;46.090;6.350;2023-07-13T11:41:01;96860.31;;;28.54;41.90
64610;BME280;51019;46.090;6.350;2023-07-13T11:43:32;96854.19;;;29.73;36.98
64610;BME280;51019;46.090;6.350;2023-07-13T11:46:15;96840.56;;;29.09;40.41
64610;BME280;51019;46.090;6.350;2023-07-13T11:48:43;96843.53;;;29.56;39.19
64610;BME280;51019;46.090;6.350;2023-07-13T11:51:15;96836.03;;;29.95;40.51
64610;BME280;51019;46.090;6.350;2023-07-13T11:53:49;96834.47;;;29.99;38.31
64610;BME280;51019;46.090;6.350;2023-07-13T11:56:27;96822.09;;;29.22;37.63
64610;BME280;51019;46.090;6.350;2023-07-13T11:58:56;96823.66;;;29.67;37.72
64610;BME280;51019;46.090;6.350;2023-07-13T12:01:24;96828.81;;;29.74;37.18
64610;BME280;51019;46.090;6.350;2023-07-13T12:03:54;96831.44;;;29.15;37.90
64610;BME280;51019;46.090;6.350;2023-07-13T12:06:27;96809.59;;;27.51;37.71
64610;BME280;51019;46.090;6.350;2023-07-13T12:08:58;96809.72;;;29.05;34.53
64610;BME280;51019;46.090;6.350;2023-07-13T12:11:26;96813.22;;;29.81;33.06
64610;BME280;51019;46.090;6.350;2023-07-13T12:13:53;96804.59;;;29.52;34.25
64610;BME280;51019;46.090;6.350;2023-07-13T12:16:25;96800.84;;;30.22;32.47
64610;BME280;51019;46.090;6.350;2023-07-13T12:18:58;96807.50;;;28.97;34.21
64610;BME280;51019;46.090;6.350;2023-07-13T12:21:29;96802.75;;;30.26;30.79
64610;BME280;51019;46.090;6.350;2023-07-13T12:23:57;96805.91;;;29.76;32.18
64610;BME280;51019;46.090;6.350;2023-07-13T12:26:24;96805.59;;;30.05;32.40
64610;BME280;51019;46.090;6.350;2023-07-13T12:28:52;96804.63;;;30.63;34.82
64610;BME280;51019;46.090;6.350;2023-07-13T12:34:08;96791.94;;;30.21;29.26
64610;BME280;51019;46.090;6.350;2023-07-13T12:36:37;96793.00;;;30.62;30.29
64610;BME280;51019;46.090;6.350;2023-07-13T12:39:14;96803.72;;;30.52;28.85
64610;BME280;51019;46.090;6.350;2023-07-13T12:41:42;96797.63;;;30.72;27.79
64610;BME280;51019;46.090;6.350;2023-07-13T12:44:11;96800.72;;;30.96;25.76
64610;BME280;51019;46.090;6.350;2023-07-13T12:46:53;96794.22;;;30.97;26.09
64610;BME280;51019;46.090;6.350;2023-07-13T12:49:25;96798.16;;;31.42;26.86
64610;BME280;51019;46.090;6.350;2023-07-13T12:52:00;96784.63;;;31.57;24.02
64610;BME280;51019;46.090;6.350;2023-07-13T12:54:28;96785.50;;;31.83;23.70
64610;BME280;51019;46.090;6.350;2023-07-13T12:56:58;96801.66;;;31.32;25.96
64610;BME280;51019;46.090;6.350;2023-07-13T12:59:29;96804.75;;;30.93;23.03
64610;BME280;51019;46.090;6.350;2023-07-13T13:01:58;96804.50;;;30.90;25.41
64610;BME280;51019;46.090;6.350;2023-07-13T13:04:29;96801.47;;;30.81;25.92
64610;BME280;51019;46.090;6.350;2023-07-13T13:07:00;96810.06;;;31.25;24.17
64610;BME280;51019;46.090;6.350;2023-07-13T13:09:30;96801.66;;;31.42;23.13
64610;BME280;51019;46.090;6.350;2023-07-13T13:11:59;96788.47;;;30.31;25.76
64610;BME280;51019;46.090;6.350;2023-07-13T13:14:27;96784.94;;;30.73;23.33
64610;BME280;51019;46.090;6.350;2023-07-13T13:17:14;96784.28;;;30.08;24.70